Terminal Aerodrome Forecast
Issued by NWS Wilmington, OH

Home | Current Version | Previous Version | Text Only | Print | Product List | Glossary On
Versions: 1 2 3 4 5 6 7 8 9 10 11 12 13 14 15 16 17 18 19 20 21 22 23 24 25 26
000
FTUS41 KILN 290500
TAFCVG
TAF
KCVG 290537Z 2906/3012 16011KT P6SM OVC200
     FM291000 18012KT P6SM SCT060 OVC150
      TEMPO 2911/2913 5SM -SHRA BKN060
     FM291600 21014G24KT P6SM BKN022 OVC150
     FM291900 28015G25KT P6SM OVC012
     FM300200 30012KT P6SM OVC015
     FM300900 32011KT P6SM OVC022=

USA.gov is the U.S. government's official web portal to all federal, state and local government web resources and services.